WXM80 ListenWXM80 Stop

You find our weather info also at:

UK Metoffice

WeatherCloud

Weather Underground

Northeastern Weather Network

AWEKAS

Citizen Weather Observer Program (CWOP)

HAMweather, WeatherForYou, PWS Weather


Weather Underground History page Text

Daily Summary for March 28, 2016 Units:  English    Metric   Both
« Previous Day
Next Day »
Daily Weekly Monthly Yearly Custom
  High: Low: Average:
Temperature: 56.5 °F 41.8 °F 46.5 °F
Dew Point: 51.2 °F 35.4 °F 42.3 °F
Humidity: 98 % 58 % 87 %
Wind Speed: 17.2 mph 0.0 mph 6.2 mph
Wind Gust: 33.4 mph - -
Wind:- - SE
Pressure: 30.14 in 29.45 in -
Precipitation: 0.40 in    
Historical Graphs
 
 
Tabular Data for March 28, 2016
Time Temperature Dew Point Pressure Wind Wind Speed Wind Gust Humidity Rainfall Rate (Hourly)
00:04 42.9 °F 39.0 °F 30.14 in East 3.2 mph 6.0 mph 86 % 0.00 in
00:10 42.9 °F 39.0 °F 30.14 in East 0.6 mph 3.5 mph 86 % 0.00 in
00:20 42.9 °F 39.0 °F 30.13 in East 3.6 mph 5.8 mph 86 % 0.00 in
00:25 42.9 °F 38.7 °F 30.13 in East 2.7 mph 5.0 mph 85 % 0.00 in
00:30 42.9 °F 39.0 °F 30.12 in East 3.4 mph 5.0 mph 86 % 0.00 in
00:35 43.0 °F 39.1 °F 30.12 in East 1.7 mph 3.5 mph 86 % 0.00 in
00:40 43.0 °F 38.8 °F 30.11 in East 2.6 mph 5.0 mph 85 % 0.00 in
00:45 43.0 °F 38.8 °F 30.11 in East 2.7 mph 3.5 mph 85 % 0.00 in
00:50 43.1 °F 39.2 °F 30.10 in East 2.0 mph 3.5 mph 86 % 0.00 in
00:55 43.1 °F 38.9 °F 30.10 in East 2.4 mph 5.0 mph 85 % 0.00 in
01:01 43.1 °F 39.2 °F 30.09 in East 4.4 mph 5.0 mph 86 % 0.00 in
01:06 43.2 °F 39.3 °F 30.08 in East 2.6 mph 5.0 mph 86 % 0.00 in
01:11 43.1 °F 39.2 °F 30.08 in East 4.5 mph 5.8 mph 86 % 0.00 in
01:16 43.1 °F 39.2 °F 30.08 in ENE 3.4 mph 5.8 mph 86 % 0.00 in
01:21 43.1 °F 39.2 °F 30.08 in ENE 3.7 mph 5.8 mph 86 % 0.00 in
01:26 43.0 °F 39.4 °F 30.08 in ENE 4.0 mph 6.9 mph 87 % 0.00 in
01:31 43.0 °F 39.4 °F 30.07 in East 3.9 mph 6.9 mph 87 % 0.00 in
01:36 43.0 °F 39.4 °F 30.07 in ENE 4.0 mph 5.0 mph 87 % 0.00 in
01:41 42.9 °F 39.3 °F 30.06 in ENE 2.9 mph 4.6 mph 87 % 0.00 in
01:46 42.9 °F 39.3 °F 30.07 in ENE 3.5 mph 5.8 mph 87 % 0.00 in
01:52 42.9 °F 39.3 °F 30.06 in ENE 3.6 mph 4.6 mph 87 % 0.00 in
01:57 42.9 °F 39.3 °F 30.06 in ENE 3.4 mph 6.9 mph 87 % 0.00 in
02:02 42.9 °F 39.6 °F 30.05 in ENE 2.5 mph 4.6 mph 88 % 0.00 in
02:07 43.0 °F 39.7 °F 30.05 in ENE 4.5 mph 9.2 mph 88 % 0.00 in
02:12 43.0 °F 39.7 °F 30.05 in ENE 4.5 mph 7.0 mph 88 % 0.00 in
02:17 43.0 °F 39.7 °F 30.05 in NE 4.3 mph 6.9 mph 88 % 0.00 in
02:22 43.0 °F 39.7 °F 30.04 in ENE 4.7 mph 8.0 mph 88 % 0.00 in
02:27 43.0 °F 39.7 °F 30.04 in ENE 6.1 mph 8.1 mph 88 % 0.00 in
02:32 43.0 °F 39.7 °F 30.03 in ENE 7.0 mph 8.1 mph 88 % 0.00 in
02:37 43.0 °F 39.7 °F 30.03 in East 4.3 mph 6.9 mph 88 % 0.00 in
02:43 43.1 °F 39.8 °F 30.03 in ENE 3.7 mph 5.8 mph 88 % 0.00 in
02:48 43.1 °F 39.8 °F 30.02 in ENE 5.8 mph 10.4 mph 88 % 0.00 in
02:53 43.2 °F 39.9 °F 30.02 in ENE 5.0 mph 6.9 mph 88 % 0.00 in
02:58 43.2 °F 39.9 °F 30.02 in ENE 3.8 mph 6.9 mph 88 % 0.00 in
03:03 43.2 °F 39.9 °F 30.01 in ENE 6.2 mph 8.1 mph 88 % 0.00 in
03:08 43.2 °F 39.9 °F 30.00 in East 5.3 mph 6.9 mph 88 % 0.00 in
03:13 43.1 °F 39.8 °F 30.00 in East 5.3 mph 7.0 mph 88 % 0.00 in
03:23 43.0 °F 40.0 °F 29.99 in ENE 5.0 mph 8.0 mph 89 % 0.00 in
03:28 42.9 °F 40.2 °F 29.99 in East 3.8 mph 5.0 mph 90 % 0.00 in
03:34 42.8 °F 40.1 °F 29.99 in ENE 4.3 mph 7.0 mph 90 % 0.00 in
03:39 42.7 °F 40.0 °F 29.97 in ENE 4.4 mph 11.5 mph 90 % 0.00 in
03:44 42.7 °F 40.3 °F 29.96 in ENE 10.0 mph 12.7 mph 91 % 0.00 in
03:49 42.5 °F 40.1 °F 29.96 in East 9.0 mph 12.0 mph 91 % 0.00 in
03:54 42.5 °F 40.3 °F 29.97 in East 7.6 mph 9.2 mph 92 % 0.00 in
03:59 42.5 °F 40.3 °F 29.97 in ENE 6.4 mph 9.2 mph 92 % 0.00 in
04:04 42.5 °F 40.3 °F 29.97 in NE 7.0 mph 10.0 mph 92 % 0.00 in
04:09 42.4 °F 40.5 °F 29.96 in ENE 6.7 mph 11.5 mph 93 % 0.00 in
04:14 42.3 °F 40.4 °F 29.96 in ENE 7.3 mph 8.1 mph 93 % 0.01 in
04:19 42.2 °F 40.3 °F 29.94 in ENE 7.5 mph 10.4 mph 93 % 0.02 in
04:25 42.1 °F 40.5 °F 29.94 in East 6.1 mph 11.5 mph 94 % 0.02 in
04:30 42.0 °F 40.4 °F 29.94 in ENE 7.8 mph 10.4 mph 94 % 0.02 in
04:35 41.9 °F 40.3 °F 29.93 in East 8.5 mph 10.4 mph 94 % 0.02 in
04:40 42.0 °F 40.7 °F 29.94 in East 6.6 mph 9.0 mph 95 % 0.02 in
04:45 42.0 °F 40.7 °F 29.93 in ENE 7.2 mph 9.2 mph 95 % 0.02 in
04:50 42.0 °F 40.7 °F 29.92 in ENE 7.7 mph 10.4 mph 95 % 0.04 in
04:55 41.9 °F 40.6 °F 29.92 in East 7.8 mph 9.2 mph 95 % 0.05 in
05:00 41.9 °F 40.6 °F 29.92 in East 7.0 mph 9.2 mph 95 % 0.05 in
05:05 41.9 °F 40.6 °F 29.90 in ENE 8.2 mph 10.4 mph 95 % 0.06 in
05:11 41.9 °F 40.6 °F 29.90 in East 8.0 mph 9.2 mph 95 % 0.07 in
05:16 41.8 °F 40.5 °F 29.90 in ENE 7.2 mph 12.0 mph 95 % 0.06 in
05:21 41.8 °F 40.5 °F 29.90 in East 9.9 mph 14.0 mph 95 % 0.05 in
05:26 41.8 °F 40.7 °F 29.89 in ENE 7.9 mph 10.4 mph 96 % 0.05 in
05:31 41.8 °F 40.5 °F 29.89 in ENE 7.3 mph 9.2 mph 95 % 0.05 in
05:36 41.8 °F 40.5 °F 29.89 in East 7.6 mph 11.5 mph 95 % 0.05 in
05:41 41.8 °F 40.7 °F 29.88 in East 7.5 mph 9.2 mph 96 % 0.05 in
05:51 41.8 °F 40.7 °F 29.88 in East 9.4 mph 13.0 mph 96 % 0.03 in
05:56 41.8 °F 40.7 °F 29.87 in East 8.3 mph 10.4 mph 96 % 0.02 in
06:02 41.9 °F 40.8 °F 29.86 in East 6.8 mph 9.2 mph 96 % 0.02 in
06:07 41.9 °F 40.8 °F 29.85 in ENE 8.1 mph 10.4 mph 96 % 0.02 in
06:12 42.0 °F 40.9 °F 29.86 in ENE 7.3 mph 10.4 mph 96 % 0.02 in
06:17 42.1 °F 41.0 °F 29.86 in ENE 7.4 mph 11.5 mph 96 % 0.03 in
06:22 42.1 °F 41.0 °F 29.85 in East 6.3 mph 10.0 mph 96 % 0.03 in
06:27 42.1 °F 41.0 °F 29.85 in ENE 6.9 mph 9.2 mph 96 % 0.04 in
06:32 42.1 °F 41.0 °F 29.85 in East 7.9 mph 11.5 mph 96 % 0.04 in
06:37 42.1 °F 41.0 °F 29.85 in ENE 7.7 mph 11.5 mph 96 % 0.04 in
06:42 42.1 °F 41.0 °F 29.84 in ENE 9.4 mph 11.5 mph 96 % 0.05 in
06:47 42.1 °F 41.0 °F 29.83 in East 7.8 mph 10.0 mph 96 % 0.06 in
06:53 42.1 °F 41.0 °F 29.84 in NE 8.6 mph 11.5 mph 96 % 0.08 in
06:58 42.1 °F 41.0 °F 29.83 in ENE 8.6 mph 12.7 mph 96 % 0.09 in
07:03 42.2 °F 41.4 °F 29.83 in ENE 4.9 mph 9.2 mph 97 % 0.09 in
07:08 42.2 °F 41.4 °F 29.83 in ENE 6.9 mph 9.2 mph 97 % 0.09 in
07:13 42.3 °F 41.5 °F 29.82 in ENE 7.3 mph 10.4 mph 97 % 0.09 in
07:18 42.3 °F 41.5 °F 29.82 in East 9.6 mph 11.5 mph 97 % 0.09 in
07:23 42.3 °F 41.5 °F 29.81 in ENE 7.8 mph 9.2 mph 97 % 0.09 in
07:28 42.3 °F 41.5 °F 29.81 in ENE 8.2 mph 11.5 mph 97 % 0.09 in
07:38 42.4 °F 41.6 °F 29.80 in East 6.9 mph 11.5 mph 97 % 0.10 in
07:44 42.4 °F 41.6 °F 29.80 in ENE 8.6 mph 10.4 mph 97 % 0.09 in
07:49 42.4 °F 41.6 °F 29.79 in East 6.8 mph 11.5 mph 97 % 0.07 in
07:59 42.5 °F 41.7 °F 29.78 in ENE 7.0 mph 9.2 mph 97 % 0.06 in
08:04 42.5 °F 41.7 °F 29.78 in ENE 6.1 mph 8.1 mph 97 % 0.06 in
08:09 42.6 °F 41.8 °F 29.78 in ENE 7.8 mph 10.4 mph 97 % 0.06 in
08:14 42.6 °F 41.8 °F 29.77 in NE 7.2 mph 9.2 mph 97 % 0.05 in
08:19 42.6 °F 41.8 °F 29.77 in ENE 7.5 mph 9.2 mph 97 % 0.04 in
08:24 42.7 °F 41.9 °F 29.77 in ENE 7.1 mph 9.2 mph 97 % 0.05 in
08:29 42.7 °F 41.9 °F 29.77 in ENE 8.9 mph 11.0 mph 97 % 0.04 in
08:35 42.7 °F 41.9 °F 29.76 in ENE 7.0 mph 9.2 mph 97 % 0.04 in
08:40 42.7 °F 41.9 °F 29.76 in ENE 7.4 mph 10.4 mph 97 % 0.03 in
08:55 42.9 °F 42.1 °F 29.75 in ENE 6.2 mph 11.5 mph 97 % 0.02 in
09:00 42.9 °F 42.1 °F 29.75 in ENE 6.9 mph 11.5 mph 97 % 0.02 in
09:05 42.9 °F 42.1 °F 29.75 in NE 7.1 mph 10.0 mph 97 % 0.01 in
09:10 42.9 °F 42.1 °F 29.74 in East 8.6 mph 11.5 mph 97 % 0.01 in
09:15 42.9 °F 42.1 °F 29.73 in ENE 8.4 mph 11.5 mph 97 % 0.02 in
09:20 42.9 °F 42.1 °F 29.73 in ENE 8.4 mph 11.5 mph 97 % 0.02 in
09:26 42.9 °F 42.1 °F 29.72 in ENE 7.7 mph 11.5 mph 97 % 0.01 in
09:31 42.9 °F 42.1 °F 29.72 in NE 6.2 mph 9.2 mph 97 % 0.01 in
09:36 42.9 °F 42.1 °F 29.71 in ENE 7.8 mph 10.4 mph 97 % 0.01 in
09:41 42.9 °F 42.1 °F 29.71 in ENE 6.8 mph 10.4 mph 97 % 0.01 in
09:46 42.9 °F 42.1 °F 29.71 in ENE 5.5 mph 8.1 mph 97 % 0.01 in
09:51 42.9 °F 42.1 °F 29.70 in East 9.5 mph 12.7 mph 97 % 0.02 in
09:56 43.0 °F 42.2 °F 29.70 in East 7.6 mph 10.4 mph 97 % 0.02 in
10:01 43.1 °F 42.3 °F 29.70 in ENE 5.9 mph 8.1 mph 97 % 0.02 in
10:06 43.1 °F 42.3 °F 29.69 in ENE 6.3 mph 9.2 mph 97 % 0.02 in
10:11 43.1 °F 42.3 °F 29.69 in ENE 5.2 mph 9.2 mph 97 % 0.02 in
10:17 43.2 °F 42.4 °F 29.69 in East 8.1 mph 9.2 mph 97 % 0.01 in
10:22 43.3 °F 42.8 °F 29.68 in ESE 7.9 mph 10.4 mph 98 % 0.01 in
10:27 43.3 °F 42.8 °F 29.68 in East 7.4 mph 10.4 mph 98 % 0.01 in
10:32 43.3 °F 42.8 °F 29.68 in ENE 6.7 mph 9.2 mph 98 % 0.01 in
10:37 43.3 °F 42.8 °F 29.67 in East 6.1 mph 7.0 mph 98 % 0.01 in
10:42 43.4 °F 42.9 °F 29.67 in ENE 6.2 mph 9.2 mph 98 % 0.01 in
10:47 43.4 °F 42.9 °F 29.67 in East 6.6 mph 10.4 mph 98 % 0.01 in
10:52 43.4 °F 42.9 °F 29.67 in East 5.7 mph 8.1 mph 98 % 0.00 in
10:57 43.5 °F 43.0 °F 29.66 in East 5.8 mph 7.0 mph 98 % 0.00 in
11:02 43.4 °F 42.9 °F 29.66 in ENE 3.2 mph 5.8 mph 98 % 0.00 in
11:08 43.5 °F 43.0 °F 29.66 in ENE 3.6 mph 6.0 mph 98 % 0.00 in
11:13 43.4 °F 42.9 °F 29.66 in ENE 7.8 mph 9.2 mph 98 % 0.00 in
11:18 43.4 °F 42.9 °F 29.66 in ENE 4.8 mph 6.9 mph 98 % 0.00 in
11:23 43.5 °F 43.0 °F 29.65 in NE 7.1 mph 9.2 mph 98 % 0.00 in
11:28 43.6 °F 43.1 °F 29.65 in ENE 7.0 mph 11.5 mph 98 % 0.00 in
11:33 43.7 °F 43.2 °F 29.64 in ENE 5.4 mph 10.4 mph 98 % 0.01 in
11:38 43.8 °F 43.3 °F 29.64 in ENE 5.6 mph 8.1 mph 98 % 0.01 in
11:43 43.8 °F 43.3 °F 29.63 in ENE 5.5 mph 9.2 mph 98 % 0.01 in
11:48 43.8 °F 43.3 °F 29.62 in NE 6.9 mph 9.2 mph 98 % 0.01 in
11:53 43.9 °F 43.4 °F 29.62 in ENE 4.7 mph 11.5 mph 98 % 0.01 in
11:59 44.0 °F 43.5 °F 29.61 in ENE 5.8 mph 8.1 mph 98 % 0.01 in
12:04 44.1 °F 43.6 °F 29.60 in ENE 7.4 mph 11.0 mph 98 % 0.01 in
12:09 44.2 °F 43.7 °F 29.59 in East 5.2 mph 8.1 mph 98 % 0.01 in
12:14 44.3 °F 43.8 °F 29.59 in NE 7.9 mph 10.4 mph 98 % 0.01 in
12:19 44.4 °F 43.9 °F 29.58 in ENE 4.7 mph 8.1 mph 98 % 0.01 in
12:24 44.4 °F 43.9 °F 29.58 in East 4.9 mph 7.0 mph 98 % 0.01 in
12:29 44.4 °F 43.9 °F 29.57 in ENE 5.6 mph 8.1 mph 98 % 0.00 in
12:34 44.5 °F 44.0 °F 29.56 in East 7.5 mph 10.4 mph 98 % 0.00 in
12:39 44.7 °F 44.2 °F 29.55 in East 5.6 mph 8.1 mph 98 % 0.00 in
12:44 44.6 °F 44.1 °F 29.54 in East 7.9 mph 12.7 mph 98 % 0.00 in
12:50 44.7 °F 44.2 °F 29.54 in ESE 7.2 mph 9.2 mph 98 % 0.00 in
12:55 44.9 °F 44.4 °F 29.54 in ENE 9.6 mph 10.0 mph 98 % 0.00 in
13:00 44.9 °F 44.4 °F 29.55 in ENE 4.0 mph 8.1 mph 98 % 0.00 in
13:05 44.9 °F 44.4 °F 29.55 in ENE 3.9 mph 5.8 mph 98 % 0.00 in
13:10 44.8 °F 44.3 °F 29.55 in ENE 2.9 mph 4.6 mph 98 % 0.00 in
13:15 44.6 °F 44.1 °F 29.55 in ENE 2.7 mph 6.9 mph 98 % 0.00 in
13:20 44.5 °F 44.0 °F 29.55 in ENE 3.9 mph 4.0 mph 98 % 0.00 in
13:25 44.4 °F 43.9 °F 29.55 in NE 2.7 mph 4.6 mph 98 % 0.00 in
13:30 44.5 °F 44.0 °F 29.55 in North 5.2 mph 6.9 mph 98 % 0.00 in
13:35 44.6 °F 44.1 °F 29.55 in NNE 2.8 mph 6.0 mph 98 % 0.01 in
13:41 44.7 °F 44.2 °F 29.55 in North 2.5 mph 4.6 mph 98 % 0.01 in
13:46 44.9 °F 44.4 °F 29.55 in NNE 3.5 mph 8.1 mph 98 % 0.02 in
13:51 44.9 °F 44.4 °F 29.55 in North 3.4 mph 5.8 mph 98 % 0.04 in
13:56 45.0 °F 44.5 °F 29.55 in NNE 3.7 mph 8.1 mph 98 % 0.06 in
14:01 45.0 °F 44.5 °F 29.55 in NNE 4.4 mph 6.0 mph 98 % 0.07 in
14:06 45.1 °F 44.6 °F 29.54 in NNE 4.5 mph 5.8 mph 98 % 0.08 in
14:11 45.1 °F 44.6 °F 29.54 in NNE 1.4 mph 3.5 mph 98 % 0.09 in
14:16 45.3 °F 44.8 °F 29.54 in NNE 2.6 mph 3.5 mph 98 % 0.10 in
14:21 45.4 °F 44.9 °F 29.54 in NNE 4.2 mph 5.0 mph 98 % 0.10 in
14:32 45.5 °F 45.0 °F 29.53 in NNE 1.3 mph 3.5 mph 98 % 0.11 in
14:37 45.4 °F 44.9 °F 29.53 in NNE 2.2 mph 5.0 mph 98 % 0.11 in
14:42 45.3 °F 44.8 °F 29.53 in NNE 0.7 mph 3.0 mph 98 % 0.11 in
14:47 45.2 °F 44.7 °F 29.53 in NNE 0.6 mph 2.0 mph 98 % 0.09 in
14:52 45.2 °F 44.7 °F 29.53 in NNE 0.4 mph 2.3 mph 98 % 0.07 in
14:57 45.2 °F 44.7 °F 29.53 in NNE 0.6 mph 3.5 mph 98 % 0.06 in
15:02 45.4 °F 44.9 °F 29.53 in NNE 0.6 mph 2.3 mph 98 % 0.05 in
15:07 45.7 °F 45.2 °F 29.52 in NNE 1.0 mph 2.3 mph 98 % 0.04 in
15:12 46.0 °F 45.5 °F 29.52 in NNE 0.3 mph 1.2 mph 98 % 0.04 in
15:17 46.1 °F 45.6 °F 29.52 in Calm     98 % 0.03 in
15:23 46.4 °F 45.9 °F 29.52 in WSW 2.9 mph 3.5 mph 98 % 0.03 in
15:28 46.7 °F 46.2 °F 29.52 in WSW 0.5 mph 2.3 mph 98 % 0.02 in
15:33 46.9 °F 46.4 °F 29.52 in SW 3.4 mph 5.8 mph 98 % 0.02 in
15:38 47.0 °F 46.5 °F 29.52 in SW 4.6 mph 7.0 mph 98 % 0.01 in
15:43 46.9 °F 46.4 °F 29.51 in WSW 2.0 mph 3.5 mph 98 % 0.01 in
15:48 47.0 °F 46.5 °F 29.51 in WSW 4.5 mph 5.8 mph 98 % 0.01 in
15:53 47.2 °F 46.7 °F 29.51 in SSW 1.5 mph 3.5 mph 98 % 0.01 in
15:58 47.4 °F 46.9 °F 29.51 in SSW 0.8 mph 3.5 mph 98 % 0.01 in
16:03 47.7 °F 47.2 °F 29.51 in WSW 2.8 mph 4.0 mph 98 % 0.01 in
16:08 47.8 °F 47.3 °F 29.51 in WSW 2.3 mph 5.8 mph 98 % 0.01 in
16:14 48.1 °F 47.6 °F 29.51 in West 2.0 mph 3.5 mph 98 % 0.00 in
16:19 48.3 °F 47.8 °F 29.50 in SW 4.2 mph 6.9 mph 98 % 0.00 in
16:24 48.6 °F 48.1 °F 29.50 in SW 4.2 mph 7.0 mph 98 % 0.00 in
16:29 49.0 °F 48.5 °F 29.50 in West 4.4 mph 7.0 mph 98 % 0.00 in
16:34 49.4 °F 48.9 °F 29.50 in WSW 2.7 mph 8.1 mph 98 % 0.00 in
16:39 49.8 °F 49.3 °F 29.50 in West 3.7 mph 6.9 mph 98 % 0.00 in
16:44 50.1 °F 49.3 °F 29.49 in SW 2.6 mph 5.8 mph 97 % 0.00 in
16:49 50.5 °F 49.7 °F 29.49 in SW 0.9 mph 4.6 mph 97 % 0.00 in
16:54 50.8 °F 50.0 °F 29.48 in SW 2.4 mph 5.8 mph 97 % 0.00 in
16:59 51.3 °F 50.2 °F 29.48 in WSW 1.9 mph 4.6 mph 96 % 0.00 in
17:05 51.7 °F 50.6 °F 29.48 in SW 2.3 mph 4.0 mph 96 % 0.00 in
17:10 52.0 °F 50.6 °F 29.48 in WSW 3.3 mph 4.6 mph 95 % 0.00 in
17:15 52.2 °F 50.2 °F 29.48 in SW 4.4 mph 6.9 mph 93 % 0.00 in
17:20 52.6 °F 50.6 °F 29.47 in West 2.8 mph 4.6 mph 93 % 0.00 in
17:25 52.8 °F 50.5 °F 29.47 in WSW 5.4 mph 7.0 mph 92 % 0.00 in
17:30 52.9 °F 50.3 °F 29.47 in WSW 2.6 mph 5.0 mph 91 % 0.00 in
17:35 53.0 °F 50.4 °F 29.47 in SW 2.6 mph 4.6 mph 91 % 0.00 in
17:40 53.1 °F 50.5 °F 29.46 in SW 2.6 mph 3.5 mph 91 % 0.00 in
17:45 53.2 °F 50.6 °F 29.46 in SW 1.0 mph 2.0 mph 91 % 0.00 in
17:50 53.2 °F 50.6 °F 29.46 in SW 0.4 mph 1.2 mph 91 % 0.00 in
17:56 53.3 °F 50.7 °F 29.46 in SW 0.4 mph 2.3 mph 91 % 0.00 in
18:01 53.5 °F 51.2 °F 29.45 in WNW 0.9 mph 2.3 mph 92 % 0.00 in
18:06 53.5 °F 50.9 °F 29.46 in SW 3.0 mph 5.8 mph 91 % 0.00 in
18:11 53.7 °F 50.5 °F 29.46 in NNW 5.6 mph 11.5 mph 89 % 0.00 in
18:16 54.0 °F 49.9 °F 29.46 in West 5.7 mph 11.5 mph 86 % 0.00 in
18:21 54.4 °F 48.0 °F 29.47 in West 8.7 mph 16.1 mph 79 % 0.00 in
18:26 54.9 °F 46.4 °F 29.46 in West 7.6 mph 10.4 mph 73 % 0.00 in
18:31 55.1 °F 45.5 °F 29.47 in WSW 8.7 mph 17.0 mph 70 % 0.00 in
18:36 55.5 °F 44.3 °F 29.47 in West 6.6 mph 20.7 mph 66 % 0.00 in
18:42 56.1 °F 43.3 °F 29.46 in WSW 17.2 mph 26.5 mph 62 % 0.00 in
18:47 56.4 °F 42.7 °F 29.47 in WSW 15.3 mph 24.2 mph 60 % 0.00 in
18:52 56.5 °F 42.8 °F 29.47 in WSW 13.6 mph 22.0 mph 60 % 0.00 in
18:57 56.4 °F 42.2 °F 29.47 in WSW 7.4 mph 20.7 mph 59 % 0.00 in
19:02 56.3 °F 42.1 °F 29.47 in WNW 9.9 mph 19.6 mph 59 % 0.00 in
19:07 56.3 °F 41.7 °F 29.47 in SW 9.9 mph 15.0 mph 58 % 0.00 in
19:12 56.2 °F 41.6 °F 29.48 in SW 10.8 mph 19.6 mph 58 % 0.00 in
19:17 56.1 °F 42.0 °F 29.48 in SW 9.7 mph 13.8 mph 59 % 0.00 in
19:22 56.1 °F 41.5 °F 29.48 in WSW 9.8 mph 21.9 mph 58 % 0.00 in
19:27 56.1 °F 42.0 °F 29.48 in SSW 7.6 mph 15.0 mph 59 % 0.00 in
19:33 56.0 °F 41.4 °F 29.48 in WNW 9.6 mph 19.6 mph 58 % 0.00 in
19:38 55.9 °F 41.8 °F 29.48 in WSW 5.3 mph 13.8 mph 59 % 0.00 in
19:43 55.9 °F 41.8 °F 29.48 in WSW 9.8 mph 17.3 mph 59 % 0.00 in
19:48 55.8 °F 41.7 °F 29.48 in WSW 9.1 mph 15.0 mph 59 % 0.00 in
19:53 55.8 °F 42.1 °F 29.49 in WSW 6.3 mph 12.7 mph 60 % 0.00 in
19:58 55.8 °F 42.1 °F 29.49 in WSW 10.9 mph 19.6 mph 60 % 0.00 in
20:08 55.7 °F 42.0 °F 29.49 in WSW 6.6 mph 11.5 mph 60 % 0.00 in
20:13 55.6 °F 41.5 °F 29.49 in SW 10.0 mph 19.6 mph 59 % 0.00 in
20:18 55.6 °F 41.0 °F 29.49 in South 8.2 mph 18.4 mph 58 % 0.00 in
20:24 55.5 °F 41.4 °F 29.50 in WNW 9.5 mph 19.6 mph 59 % 0.00 in
20:29 55.4 °F 41.3 °F 29.50 in WSW 10.6 mph 20.7 mph 59 % 0.00 in
20:34 55.3 °F 41.2 °F 29.51 in WNW 12.4 mph 26.5 mph 59 % 0.00 in
20:39 55.1 °F 41.5 °F 29.52 in WSW 8.8 mph 23.0 mph 60 % 0.00 in
20:44 54.7 °F 41.5 °F 29.52 in WNW 7.3 mph 12.7 mph 61 % 0.00 in
20:49 54.3 °F 42.0 °F 29.53 in WNW 8.0 mph 15.0 mph 63 % 0.00 in
20:54 53.9 °F 41.2 °F 29.53 in WNW 11.0 mph 19.6 mph 62 % 0.00 in
20:59 53.6 °F 41.3 °F 29.54 in SW 8.7 mph 17.3 mph 63 % 0.00 in
21:04 53.2 °F 40.9 °F 29.54 in NW 9.6 mph 21.9 mph 63 % 0.00 in
21:15 52.7 °F 40.9 °F 29.55 in WNW 8.7 mph 17.3 mph 64 % 0.00 in
21:20 52.2 °F 40.8 °F 29.55 in West 6.5 mph 9.0 mph 65 % 0.00 in
21:25 51.8 °F 40.8 °F 29.56 in NW 10.6 mph 23.0 mph 66 % 0.00 in
21:30 51.4 °F 40.4 °F 29.56 in WNW 3.9 mph 13.8 mph 66 % 0.00 in
21:35 51.2 °F 40.6 °F 29.56 in West 8.6 mph 12.7 mph 67 % 0.00 in
21:40 51.1 °F 40.1 °F 29.56 in WNW 11.8 mph 15.0 mph 66 % 0.00 in
21:45 51.2 °F 39.0 °F 29.56 in WSW 8.9 mph 15.0 mph 63 % 0.00 in
21:50 51.2 °F 38.2 °F 29.57 in WSW 10.2 mph 16.1 mph 61 % 0.00 in
21:55 51.2 °F 38.2 °F 29.57 in West 13.5 mph 18.4 mph 61 % 0.00 in
22:06 51.0 °F 37.6 °F 29.57 in West 9.1 mph 19.6 mph 60 % 0.00 in
22:11 51.0 °F 38.0 °F 29.58 in West 12.2 mph 29.9 mph 61 % 0.00 in
22:16 51.0 °F 37.6 °F 29.57 in WNW 10.8 mph 17.3 mph 60 % 0.00 in
22:21 51.0 °F 38.0 °F 29.58 in WNW 8.4 mph 19.6 mph 61 % 0.00 in
22:26 50.9 °F 37.9 °F 29.58 in NW 9.3 mph 23.0 mph 61 % 0.00 in
22:31 50.8 °F 38.2 °F 29.58 in SW 11.3 mph 20.7 mph 62 % 0.00 in
22:36 50.7 °F 38.1 °F 29.58 in West 12.4 mph 19.6 mph 62 % 0.00 in
22:41 50.6 °F 38.1 °F 29.58 in West 9.6 mph 18.4 mph 62 % 0.00 in
22:46 50.6 °F 37.2 °F 29.58 in SW 13.9 mph 27.6 mph 60 % 0.00 in
22:51 50.6 °F 36.8 °F 29.58 in SW 14.1 mph 20.7 mph 59 % 0.00 in
22:57 50.5 °F 37.1 °F 29.58 in WNW 4.9 mph 15.0 mph 60 % 0.00 in
23:02 50.4 °F 37.4 °F 29.58 in West 8.7 mph 18.4 mph 61 % 0.00 in
23:07 50.3 °F 36.9 °F 29.59 in SSW 6.3 mph 17.3 mph 60 % 0.00 in
23:12 50.2 °F 36.4 °F 29.58 in WSW 8.5 mph 12.7 mph 59 % 0.00 in
23:17 50.1 °F 35.9 °F 29.59 in West 10.5 mph 19.6 mph 58 % 0.00 in
23:22 49.9 °F 36.1 °F 29.59 in West 7.7 mph 21.9 mph 59 % 0.00 in
23:27 49.8 °F 35.6 °F 29.60 in WNW 9.5 mph 20.7 mph 58 % 0.00 in
23:32 49.7 °F 35.9 °F 29.59 in WNW 10.0 mph 21.9 mph 59 % 0.00 in
23:37 49.6 °F 35.4 °F 29.60 in West 15.3 mph 28.0 mph 58 % 0.00 in
23:42 49.4 °F 35.7 °F 29.60 in WSW 11.7 mph 23.0 mph 59 % 0.00 in
23:48 49.2 °F 35.9 °F 29.61 in West 11.4 mph 16.0 mph 60 % 0.00 in
23:53 49.0 °F 36.5 °F 29.60 in NW 7.4 mph 19.6 mph 62 % 0.00 in
23:58 48.9 °F 36.0 °F 29.60 in NW 14.0 mph 33.4 mph 61 % 0.00 in
Crab Meadow Weather
Compliments of Weather Underground - 2.75 mb

Script developed by  Jim McMurry - jmcmurry@mwt.net Adapted for the template by  Wim van der Kuil - Leuven-Template.eu

Extremes: A total of 1,224.5 inches of snow fell over a 12-month period from February 1971 to February 1972 at Paradise, Mt. Ranier, in Washington State.